sensor_id;sensor_type;location;lat;lon;timestamp;pressure;altitude;pressure_sealevel;temperature
17716;BMP280;50159;49.426;11.182;2022-07-29T00:02:28;97481.25;;;21.38
17716;BMP280;50159;49.426;11.182;2022-07-29T00:04:55;97488.19;;;21.39
17716;BMP280;50159;49.426;11.182;2022-07-29T00:07:23;97473.94;;;21.40
17716;BMP280;50159;49.426;11.182;2022-07-29T00:09:50;97478.59;;;21.38
17716;BMP280;50159;49.426;11.182;2022-07-29T00:12:24;97484.53;;;21.40
17716;BMP280;50159;49.426;11.182;2022-07-29T00:14:56;97476.78;;;21.39
17716;BMP280;50159;49.426;11.182;2022-07-29T00:17:26;97468.03;;;21.38
17716;BMP280;50159;49.426;11.182;2022-07-29T00:19:54;97465.56;;;21.37
17716;BMP280;50159;49.426;11.182;2022-07-29T00:22:22;97474.13;;;21.39
17716;BMP280;50159;49.426;11.182;2022-07-29T00:24:49;97471.28;;;21.40
17716;BMP280;50159;49.426;11.182;2022-07-29T00:27:17;97467.81;;;21.40
17716;BMP280;50159;49.426;11.182;2022-07-29T00:29:44;97468.84;;;21.39
17716;BMP280;50159;49.426;11.182;2022-07-29T00:32:12;97476.78;;;21.39
17716;BMP280;50159;49.426;11.182;2022-07-29T00:34:39;97472.69;;;21.36
17716;BMP280;50159;49.426;11.182;2022-07-29T00:37:24;97466.56;;;21.36
17716;BMP280;50159;49.426;11.182;2022-07-29T00:39:51;97466.78;;;21.34
17716;BMP280;50159;49.426;11.182;2022-07-29T00:42:18;97460.22;;;21.31
17716;BMP280;50159;49.426;11.182;2022-07-29T00:44:45;97455.28;;;21.28
17716;BMP280;50159;49.426;11.182;2022-07-29T00:47:12;97457.31;;;21.26
17716;BMP280;50159;49.426;11.182;2022-07-29T00:49:41;97442.84;;;21.22
17716;BMP280;50159;49.426;11.182;2022-07-29T00:52:10;97437.91;;;21.19
17716;BMP280;50159;49.426;11.182;2022-07-29T00:54:39;97438.25;;;21.16
17716;BMP280;50159;49.426;11.182;2022-07-29T00:57:11;97442.13;;;21.13
17716;BMP280;50159;49.426;11.182;2022-07-29T00:59:39;97434.38;;;21.12
17716;BMP280;50159;49.426;11.182;2022-07-29T01:02:06;97439.66;;;21.12
17716;BMP280;50159;49.426;11.182;2022-07-29T01:04:33;97430.91;;;21.11
17716;BMP280;50159;49.426;11.182;2022-07-29T01:07:04;97441.28;;;21.13
17716;BMP280;50159;49.426;11.182;2022-07-29T01:09:33;97436.81;;;21.13
17716;BMP280;50159;49.426;11.182;2022-07-29T01:12:20;97438.47;;;21.14
17716;BMP280;50159;49.426;11.182;2022-07-29T01:14:49;97437.63;;;21.14
17716;BMP280;50159;49.426;11.182;2022-07-29T01:17:27;97446.59;;;21.13
17716;BMP280;50159;49.426;11.182;2022-07-29T01:20:13;97447.59;;;21.12
17716;BMP280;50159;49.426;11.182;2022-07-29T01:26:49;97437.78;;;21.06
17716;BMP280;50159;49.426;11.182;2022-07-29T01:29:32;97458.31;;;21.04
17716;BMP280;50159;49.426;11.182;2022-07-29T01:32:11;97461.13;;;21.03
17716;BMP280;50159;49.426;11.182;2022-07-29T01:35:16;97460.31;;;21.02
17716;BMP280;50159;49.426;11.182;2022-07-29T01:38:12;97457.50;;;21.04
17716;BMP280;50159;49.426;11.182;2022-07-29T01:40:49;97457.84;;;21.01
17716;BMP280;50159;49.426;11.182;2022-07-29T01:43:28;97462.09;;;20.95
17716;BMP280;50159;49.426;11.182;2022-07-29T01:46:03;97456.50;;;20.90
17716;BMP280;50159;49.426;11.182;2022-07-29T01:48:45;97456.28;;;20.86
17716;BMP280;50159;49.426;11.182;2022-07-29T01:51:49;97446.63;;;20.78
17716;BMP280;50159;49.426;11.182;2022-07-29T01:54:39;97443.91;;;20.72
17716;BMP280;50159;49.426;11.182;2022-07-29T01:57:16;97439.56;;;20.64
17716;BMP280;50159;49.426;11.182;2022-07-29T01:59:48;97444.78;;;20.58
17716;BMP280;50159;49.426;11.182;2022-07-29T02:02:18;97435.59;;;20.54
17716;BMP280;50159;49.426;11.182;2022-07-29T02:04:48;97436.94;;;20.50
17716;BMP280;50159;49.426;11.182;2022-07-29T02:07:20;97436.69;;;20.45
17716;BMP280;50159;49.426;11.182;2022-07-29T02:09:50;97438.88;;;20.42
17716;BMP280;50159;49.426;11.182;2022-07-29T02:12:19;97440.22;;;20.38
17716;BMP280;50159;49.426;11.182;2022-07-29T02:14:53;97434.31;;;20.36
17716;BMP280;50159;49.426;11.182;2022-07-29T02:17:31;97440.53;;;20.29
17716;BMP280;50159;49.426;11.182;2022-07-29T02:20:03;97440.25;;;20.24
17716;BMP280;50159;49.426;11.182;2022-07-29T02:22:35;97439.16;;;20.19
17716;BMP280;50159;49.426;11.182;2022-07-29T02:25:06;97451.91;;;20.15
17716;BMP280;50159;49.426;11.182;2022-07-29T02:27:41;97440.44;;;20.08
17716;BMP280;50159;49.426;11.182;2022-07-29T02:30:10;97447.25;;;20.03
17716;BMP280;50159;49.426;11.182;2022-07-29T02:32:41;97448.81;;;19.97
17716;BMP280;50159;49.426;11.182;2022-07-29T02:35:10;97437.81;;;19.94
17716;BMP280;50159;49.426;11.182;2022-07-29T02:37:41;97426.78;;;19.91
17716;BMP280;50159;49.426;11.182;2022-07-29T02:40:11;97427.78;;;19.90
17716;BMP280;50159;49.426;11.182;2022-07-29T02:42:43;97427.97;;;19.88
17716;BMP280;50159;49.426;11.182;2022-07-29T02:45:11;97432.44;;;19.88
17716;BMP280;50159;49.426;11.182;2022-07-29T02:47:47;97428.78;;;19.89
17716;BMP280;50159;49.426;11.182;2022-07-29T02:50:27;97426.13;;;19.89
17716;BMP280;50159;49.426;11.182;2022-07-29T02:53:16;97435.69;;;19.90
17716;BMP280;50159;49.426;11.182;2022-07-29T02:55:55;97433.72;;;19.92
17716;BMP280;50159;49.426;11.182;2022-07-29T02:58:33;97433.34;;;19.95
17716;BMP280;50159;49.426;11.182;2022-07-29T03:01:13;97439.25;;;19.97
17716;BMP280;50159;49.426;11.182;2022-07-29T03:03:49;97434.81;;;19.97
17716;BMP280;50159;49.426;11.182;2022-07-29T03:06:19;97439.25;;;19.97
17716;BMP280;50159;49.426;11.182;2022-07-29T03:09:07;97434.53;;;19.92
17716;BMP280;50159;49.426;11.182;2022-07-29T03:11:40;97437.69;;;19.88
17716;BMP280;50159;49.426;11.182;2022-07-29T03:14:19;97436.63;;;19.82
17716;BMP280;50159;49.426;11.182;2022-07-29T03:16:49;97436.31;;;19.77
17716;BMP280;50159;49.426;11.182;2022-07-29T03:19:17;97436.50;;;19.76
17716;BMP280;50159;49.426;11.182;2022-07-29T03:21:45;97436.88;;;19.73
17716;BMP280;50159;49.426;11.182;2022-07-29T03:24:25;97427.56;;;19.63
17716;BMP280;50159;49.426;11.182;2022-07-29T03:26:53;97426.66;;;19.56
17716;BMP280;50159;49.426;11.182;2022-07-29T03:29:20;97434.09;;;19.52
17716;BMP280;50159;49.426;11.182;2022-07-29T03:31:50;97429.81;;;19.51
17716;BMP280;50159;49.426;11.182;2022-07-29T03:34:17;97430.00;;;19.50
17716;BMP280;50159;49.426;11.182;2022-07-29T03:36:44;97440.72;;;19.49
17716;BMP280;50159;49.426;11.182;2022-07-29T03:39:17;97431.34;;;19.46
17716;BMP280;50159;49.426;11.182;2022-07-29T03:41:47;97438.63;;;19.44
17716;BMP280;50159;49.426;11.182;2022-07-29T03:44:16;97444.72;;;19.45
17716;BMP280;50159;49.426;11.182;2022-07-29T03:46:45;97456.47;;;19.42
17716;BMP280;50159;49.426;11.182;2022-07-29T03:49:16;97450.69;;;19.39
17716;BMP280;50159;49.426;11.182;2022-07-29T03:51:43;97455.16;;;19.38
17716;BMP280;50159;49.426;11.182;2022-07-29T03:54:11;97455.78;;;19.40
17716;BMP280;50159;49.426;11.182;2022-07-29T03:56:43;97451.53;;;19.39
17716;BMP280;50159;49.426;11.182;2022-07-29T03:59:15;97446.44;;;19.38
17716;BMP280;50159;49.426;11.182;2022-07-29T04:01:44;97452.25;;;19.33
17716;BMP280;50159;49.426;11.182;2022-07-29T04:04:12;97460.34;;;19.32
17716;BMP280;50159;49.426;11.182;2022-07-29T04:06:41;97455.44;;;19.29
17716;BMP280;50159;49.426;11.182;2022-07-29T04:09:09;97452.78;;;19.29
17716;BMP280;50159;49.426;11.182;2022-07-29T04:11:39;97450.78;;;19.31
17716;BMP280;50159;49.426;11.182;2022-07-29T04:14:26;97448.16;;;19.31
17716;BMP280;50159;49.426;11.182;2022-07-29T04:16:53;97447.53;;;19.29
17716;BMP280;50159;49.426;11.182;2022-07-29T04:19:20;97449.84;;;19.24
17716;BMP280;50159;49.426;11.182;2022-07-29T04:21:46;97444.13;;;19.21
17716;BMP280;50159;49.426;11.182;2022-07-29T04:24:13;97447.56;;;19.21
17716;BMP280;50159;49.426;11.182;2022-07-29T04:26:41;97454.47;;;19.22
17716;BMP280;50159;49.426;11.182;2022-07-29T04:29:08;97459.94;;;19.21
17716;BMP280;50159;49.426;11.182;2022-07-29T04:31:35;97460.13;;;19.19
17716;BMP280;50159;49.426;11.182;2022-07-29T04:34:02;97459.47;;;19.17
17716;BMP280;50159;49.426;11.182;2022-07-29T04:36:29;97463.94;;;19.17
17716;BMP280;50159;49.426;11.182;2022-07-29T04:38:56;97469.72;;;19.12
17716;BMP280;50159;49.426;11.182;2022-07-29T04:41:22;97485.91;;;19.09
17716;BMP280;50159;49.426;11.182;2022-07-29T04:43:59;97483.31;;;19.02
17716;BMP280;50159;49.426;11.182;2022-07-29T04:46:27;97485.38;;;18.92
17716;BMP280;50159;49.426;11.182;2022-07-29T04:48:54;97484.78;;;18.82
17716;BMP280;50159;49.426;11.182;2022-07-29T04:51:22;97487.06;;;18.85
17716;BMP280;50159;49.426;11.182;2022-07-29T04:53:49;97486.50;;;18.89
17716;BMP280;50159;49.426;11.182;2022-07-29T04:56:16;97482.75;;;18.92
17716;BMP280;50159;49.426;11.182;2022-07-29T04:58:42;97495.72;;;18.93
17716;BMP280;50159;49.426;11.182;2022-07-29T05:01:09;97494.56;;;18.96
17716;BMP280;50159;49.426;11.182;2022-07-29T05:03:36;97488.13;;;18.98
17716;BMP280;50159;49.426;11.182;2022-07-29T05:06:03;97501.13;;;19.00
17716;BMP280;50159;49.426;11.182;2022-07-29T05:08:30;97489.13;;;18.97
17716;BMP280;50159;49.426;11.182;2022-07-29T05:10:57;97501.47;;;18.97
17716;BMP280;50159;49.426;11.182;2022-07-29T05:13:37;97495.19;;;18.98
17716;BMP280;50159;49.426;11.182;2022-07-29T05:16:11;97499.00;;;18.95
17716;BMP280;50159;49.426;11.182;2022-07-29T05:18:38;97505.47;;;18.93
17716;BMP280;50159;49.426;11.182;2022-07-29T05:21:05;97501.00;;;18.93
17716;BMP280;50159;49.426;11.182;2022-07-29T05:23:31;97505.56;;;18.99
17716;BMP280;50159;49.426;11.182;2022-07-29T05:25:58;97501.72;;;19.09
17716;BMP280;50159;49.426;11.182;2022-07-29T05:28:25;97505.13;;;19.18
17716;BMP280;50159;49.426;11.182;2022-07-29T05:30:52;97501.22;;;19.28
17716;BMP280;50159;49.426;11.182;2022-07-29T05:33:19;97501.81;;;19.38
17716;BMP280;50159;49.426;11.182;2022-07-29T05:36:04;97499.41;;;19.51
17716;BMP280;50159;49.426;11.182;2022-07-29T05:38:34;97504.25;;;19.61
17716;BMP280;50159;49.426;11.182;2022-07-29T05:41:02;97505.50;;;19.73
17716;BMP280;50159;49.426;11.182;2022-07-29T05:43:29;97501.16;;;19.80
17716;BMP280;50159;49.426;11.182;2022-07-29T05:45:56;97493.78;;;19.90
17716;BMP280;50159;49.426;11.182;2022-07-29T05:48:24;97495.97;;;20.00
17716;BMP280;50159;49.426;11.182;2022-07-29T05:50:51;97504.91;;;20.14
17716;BMP280;50159;49.426;11.182;2022-07-29T05:53:18;97512.19;;;20.26
17716;BMP280;50159;49.426;11.182;2022-07-29T05:55:48;97513.19;;;20.39
17716;BMP280;50159;49.426;11.182;2022-07-29T05:58:15;97510.13;;;20.50
17716;BMP280;50159;49.426;11.182;2022-07-29T06:00:41;97509.66;;;20.61
17716;BMP280;50159;49.426;11.182;2022-07-29T06:03:08;97503.50;;;20.74
17716;BMP280;50159;49.426;11.182;2022-07-29T06:05:35;97501.84;;;20.87
17716;BMP280;50159;49.426;11.182;2022-07-29T06:08:03;97500.53;;;20.98
17716;BMP280;50159;49.426;11.182;2022-07-29T06:10:32;97507.16;;;21.08
17716;BMP280;50159;49.426;11.182;2022-07-29T06:12:59;97502.41;;;21.18
17716;BMP280;50159;49.426;11.182;2022-07-29T06:15:26;97499.28;;;21.29
17716;BMP280;50159;49.426;11.182;2022-07-29T06:17:53;97506.34;;;21.42
17716;BMP280;50159;49.426;11.182;2022-07-29T06:20:31;97506.06;;;21.58
17716;BMP280;50159;49.426;11.182;2022-07-29T06:22:59;97507.81;;;21.72
17716;BMP280;50159;49.426;11.182;2022-07-29T06:25:27;97497.94;;;21.86
17716;BMP280;50159;49.426;11.182;2022-07-29T06:27:57;97504.63;;;22.03
17716;BMP280;50159;49.426;11.182;2022-07-29T06:30:24;97505.72;;;22.15
17716;BMP280;50159;49.426;11.182;2022-07-29T06:32:51;97505.19;;;22.25
17716;BMP280;50159;49.426;11.182;2022-07-29T06:35:18;97510.34;;;22.40
17716;BMP280;50159;49.426;11.182;2022-07-29T06:38:05;97500.22;;;22.49
17716;BMP280;50159;49.426;11.182;2022-07-29T06:40:53;97499.66;;;22.60
17716;BMP280;50159;49.426;11.182;2022-07-29T06:43:37;97495.69;;;22.70
17716;BMP280;50159;49.426;11.182;2022-07-29T06:46:18;97494.50;;;22.79
17716;BMP280;50159;49.426;11.182;2022-07-29T06:48:46;97499.16;;;22.77
17716;BMP280;50159;49.426;11.182;2022-07-29T06:51:14;97493.47;;;22.87
17716;BMP280;50159;49.426;11.182;2022-07-29T06:53:42;97498.00;;;22.99
17716;BMP280;50159;49.426;11.182;2022-07-29T06:56:34;97502.56;;;23.24
17716;BMP280;50159;49.426;11.182;2022-07-29T06:59:07;97498.50;;;23.34
17716;BMP280;50159;49.426;11.182;2022-07-29T07:01:36;97502.25;;;23.46
17716;BMP280;50159;49.426;11.182;2022-07-29T07:04:04;97505.53;;;23.60
17716;BMP280;50159;49.426;11.182;2022-07-29T07:06:31;97514.53;;;23.72
17716;BMP280;50159;49.426;11.182;2022-07-29T07:08:57;97513.31;;;23.81
17716;BMP280;50159;49.426;11.182;2022-07-29T07:11:24;97496.56;;;23.93
17716;BMP280;50159;49.426;11.182;2022-07-29T07:13:51;97495.75;;;24.05
17716;BMP280;50159;49.426;11.182;2022-07-29T07:16:18;97495.72;;;24.18
17716;BMP280;50159;49.426;11.182;2022-07-29T07:18:45;97497.94;;;24.34
17716;BMP280;50159;49.426;11.182;2022-07-29T07:21:12;97503.44;;;24.39
17716;BMP280;50159;49.426;11.182;2022-07-29T07:23:45;97504.03;;;24.41
17716;BMP280;50159;49.426;11.182;2022-07-29T07:26:12;97500.19;;;24.37
17716;BMP280;50159;49.426;11.182;2022-07-29T07:28:39;97501.81;;;24.38
17716;BMP280;50159;49.426;11.182;2022-07-29T07:31:06;97497.09;;;24.40
17716;BMP280;50159;49.426;11.182;2022-07-29T07:33:33;97493.19;;;24.48
17716;BMP280;50159;49.426;11.182;2022-07-29T07:36:00;97492.34;;;24.61
17716;BMP280;50159;49.426;11.182;2022-07-29T07:38:27;97493.75;;;24.76
17716;BMP280;50159;49.426;11.182;2022-07-29T07:40:54;97497.75;;;24.97
17716;BMP280;50159;49.426;11.182;2022-07-29T07:43:20;97486.16;;;25.16
17716;BMP280;50159;49.426;11.182;2022-07-29T07:45:48;97492.13;;;25.18
17716;BMP280;50159;49.426;11.182;2022-07-29T07:48:15;97488.66;;;25.17
17716;BMP280;50159;49.426;11.182;2022-07-29T07:50:42;97499.47;;;25.22
17716;BMP280;50159;49.426;11.182;2022-07-29T07:53:10;97489.16;;;25.32
17716;BMP280;50159;49.426;11.182;2022-07-29T07:55:41;97490.66;;;25.59
17716;BMP280;50159;49.426;11.182;2022-07-29T07:58:28;97501.34;;;25.83
17716;BMP280;50159;49.426;11.182;2022-07-29T08:00:55;97485.50;;;25.87
17716;BMP280;50159;49.426;11.182;2022-07-29T08:03:22;97496.25;;;25.75
17716;BMP280;50159;49.426;11.182;2022-07-29T08:05:49;97490.88;;;25.57
17716;BMP280;50159;49.426;11.182;2022-07-29T08:08:18;97489.94;;;25.45
17716;BMP280;50159;49.426;11.182;2022-07-29T08:10:45;97485.44;;;25.39
17716;BMP280;50159;49.426;11.182;2022-07-29T08:13:27;97487.41;;;25.57
17716;BMP280;50159;49.426;11.182;2022-07-29T08:15:58;97476.94;;;25.79
17716;BMP280;50159;49.426;11.182;2022-07-29T08:18:30;97479.22;;;26.06
17716;BMP280;50159;49.426;11.182;2022-07-29T08:20:58;97484.88;;;26.33
17716;BMP280;50159;49.426;11.182;2022-07-29T08:23:25;97472.28;;;26.40
17716;BMP280;50159;49.426;11.182;2022-07-29T08:26:13;97472.72;;;26.37
17716;BMP280;50159;49.426;11.182;2022-07-29T08:28:42;97472.91;;;26.42
17716;BMP280;50159;49.426;11.182;2022-07-29T08:31:13;97469.78;;;26.45
17716;BMP280;50159;49.426;11.182;2022-07-29T08:33:41;97471.19;;;26.48
17716;BMP280;50159;49.426;11.182;2022-07-29T08:36:08;97464.19;;;26.71
17716;BMP280;50159;49.426;11.182;2022-07-29T08:38:36;97471.63;;;26.98
17716;BMP280;50159;49.426;11.182;2022-07-29T08:41:03;97466.56;;;27.07
17716;BMP280;50159;49.426;11.182;2022-07-29T08:43:30;97466.53;;;26.96
17716;BMP280;50159;49.426;11.182;2022-07-29T08:45:56;97472.16;;;26.88
17716;BMP280;50159;49.426;11.182;2022-07-29T08:48:24;97461.81;;;26.80
17716;BMP280;50159;49.426;11.182;2022-07-29T08:50:55;97461.75;;;26.98
17716;BMP280;50159;49.426;11.182;2022-07-29T08:53:25;97463.31;;;27.05
17716;BMP280;50159;49.426;11.182;2022-07-29T08:55:54;97458.06;;;27.28
17716;BMP280;50159;49.426;11.182;2022-07-29T08:58:23;97471.88;;;27.65
17716;BMP280;50159;49.426;11.182;2022-07-29T09:00:55;97460.81;;;28.02
17716;BMP280;50159;49.426;11.182;2022-07-29T09:03:29;97459.28;;;28.28
17716;BMP280;50159;49.426;11.182;2022-07-29T09:06:01;97449.56;;;28.45
17716;BMP280;50159;49.426;11.182;2022-07-29T09:08:31;97444.31;;;28.50
17716;BMP280;50159;49.426;11.182;2022-07-29T09:11:00;97444.78;;;28.47
17716;BMP280;50159;49.426;11.182;2022-07-29T09:13:29;97451.59;;;28.65
17716;BMP280;50159;49.426;11.182;2022-07-29T09:15:56;97449.63;;;28.72
17716;BMP280;50159;49.426;11.182;2022-07-29T09:18:44;97447.38;;;28.92
17716;BMP280;50159;49.426;11.182;2022-07-29T09:21:15;97439.53;;;29.02
17716;BMP280;50159;49.426;11.182;2022-07-29T09:24:14;97442.16;;;29.13
17716;BMP280;50159;49.426;11.182;2022-07-29T09:26:46;97446.22;;;29.15
17716;BMP280;50159;49.426;11.182;2022-07-29T09:29:22;97441.00;;;29.36
17716;BMP280;50159;49.426;11.182;2022-07-29T09:31:52;97433.84;;;29.42
17716;BMP280;50159;49.426;11.182;2022-07-29T09:34:25;97432.47;;;29.39
17716;BMP280;50159;49.426;11.182;2022-07-29T09:36:54;97438.31;;;29.64
17716;BMP280;50159;49.426;11.182;2022-07-29T09:39:39;97427.59;;;29.80
17716;BMP280;50159;49.426;11.182;2022-07-29T09:42:12;97425.97;;;29.63
17716;BMP280;50159;49.426;11.182;2022-07-29T09:44:48;97432.22;;;29.41
17716;BMP280;50159;49.426;11.182;2022-07-29T09:47:17;97420.00;;;29.45
17716;BMP280;50159;49.426;11.182;2022-07-29T09:49:57;97433.25;;;29.51
17716;BMP280;50159;49.426;11.182;2022-07-29T09:52:29;97428.66;;;29.19
17716;BMP280;50159;49.426;11.182;2022-07-29T09:55:09;97429.22;;;29.21
17716;BMP280;50159;49.426;11.182;2022-07-29T09:57:46;97442.00;;;29.30
17716;BMP280;50159;49.426;11.182;2022-07-29T10:00:17;97428.03;;;29.17
17716;BMP280;50159;49.426;11.182;2022-07-29T10:02:46;97428.25;;;29.00
17716;BMP280;50159;49.426;11.182;2022-07-29T10:05:23;97430.00;;;29.05
17716;BMP280;50159;49.426;11.182;2022-07-29T10:07:56;97434.47;;;29.16
17716;BMP280;50159;49.426;11.182;2022-07-29T10:10:35;97434.41;;;29.27
17716;BMP280;50159;49.426;11.182;2022-07-29T10:13:07;97425.91;;;29.58
17716;BMP280;50159;49.426;11.182;2022-07-29T10:15:44;97426.13;;;29.89
17716;BMP280;50159;49.426;11.182;2022-07-29T10:18:14;97425.97;;;29.79
17716;BMP280;50159;49.426;11.182;2022-07-29T10:20:43;97432.63;;;29.92
17716;BMP280;50159;49.426;11.182;2022-07-29T10:23:10;97434.59;;;30.13
17716;BMP280;50159;49.426;11.182;2022-07-29T10:25:37;97420.41;;;30.34
17716;BMP280;50159;49.426;11.182;2022-07-29T10:28:05;97424.94;;;30.49
17716;BMP280;50159;49.426;11.182;2022-07-29T10:30:32;97417.91;;;30.85
17716;BMP280;50159;49.426;11.182;2022-07-29T10:36:46;97415.66;;;31.20
17716;BMP280;50159;49.426;11.182;2022-07-29T10:39:47;97414.13;;;31.28
17716;BMP280;50159;49.426;11.182;2022-07-29T10:42:23;97399.28;;;31.52
17716;BMP280;50159;49.426;11.182;2022-07-29T10:44:58;97402.41;;;31.65
17716;BMP280;50159;49.426;11.182;2022-07-29T10:47:26;97399.28;;;31.52
17716;BMP280;50159;49.426;11.182;2022-07-29T10:50:03;97393.41;;;31.55
17716;BMP280;50159;49.426;11.182;2022-07-29T10:55:38;97399.72;;;31.65
17716;BMP280;50159;49.426;11.182;2022-07-29T10:58:20;97388.19;;;31.70
17716;BMP280;50159;49.426;11.182;2022-07-29T11:00:57;97391.47;;;31.76
17716;BMP280;50159;49.426;11.182;2022-07-29T11:03:47;97386.88;;;31.46
17716;BMP280;50159;49.426;11.182;2022-07-29T11:06:19;97381.13;;;31.07
17716;BMP280;50159;49.426;11.182;2022-07-29T11:09:20;97380.69;;;30.73
17716;BMP280;50159;49.426;11.182;2022-07-29T11:12:45;97378.72;;;30.47
17716;BMP280;50159;49.426;11.182;2022-07-29T11:17:19;97368.13;;;29.99
17716;BMP280;50159;49.426;11.182;2022-07-29T11:19:46;97379.97;;;29.87
17716;BMP280;50159;49.426;11.182;2022-07-29T11:22:35;97375.50;;;29.76
17716;BMP280;50159;49.426;11.182;2022-07-29T11:25:20;97380.13;;;29.64
17716;BMP280;50159;49.426;11.182;2022-07-29T11:28:19;97376.91;;;29.62
17716;BMP280;50159;49.426;11.182;2022-07-29T11:31:09;97378.53;;;29.63
17716;BMP280;50159;49.426;11.182;2022-07-29T11:33:37;97374.06;;;29.69
17716;BMP280;50159;49.426;11.182;2022-07-29T11:36:25;97377.38;;;29.75
17716;BMP280;50159;49.426;11.182;2022-07-29T11:39:26;97369.84;;;29.72
17716;BMP280;50159;49.426;11.182;2022-07-29T11:45:21;97369.72;;;29.68
17716;BMP280;50159;49.426;11.182;2022-07-29T11:48:16;97373.91;;;29.59
17716;BMP280;50159;49.426;11.182;2022-07-29T11:50:56;97365.44;;;29.50
17716;BMP280;50159;49.426;11.182;2022-07-29T11:53:24;97361.81;;;29.56
17716;BMP280;50159;49.426;11.182;2022-07-29T11:55:55;97367.44;;;29.92
17716;BMP280;50159;49.426;11.182;2022-07-29T11:58:24;97364.97;;;30.23
17716;BMP280;50159;49.426;11.182;2022-07-29T12:00:53;97360.34;;;30.56
17716;BMP280;50159;49.426;11.182;2022-07-29T12:03:28;97359.13;;;31.10
17716;BMP280;50159;49.426;11.182;2022-07-29T12:06:12;97352.66;;;31.68
17716;BMP280;50159;49.426;11.182;2022-07-29T12:08:42;97349.78;;;32.15
17716;BMP280;50159;49.426;11.182;2022-07-29T12:11:20;97345.41;;;32.54
17716;BMP280;50159;49.426;11.182;2022-07-29T12:13:51;97338.47;;;32.68
17716;BMP280;50159;49.426;11.182;2022-07-29T12:16:19;97340.22;;;32.38
17716;BMP280;50159;49.426;11.182;2022-07-29T12:19:00;97328.78;;;31.76
17716;BMP280;50159;49.426;11.182;2022-07-29T12:21:29;97326.75;;;31.26
17716;BMP280;50159;49.426;11.182;2022-07-29T12:24:15;97333.13;;;30.94
17716;BMP280;50159;49.426;11.182;2022-07-29T12:26:59;97338.31;;;30.80
17716;BMP280;50159;49.426;11.182;2022-07-29T12:29:28;97322.97;;;31.01
17716;BMP280;50159;49.426;11.182;2022-07-29T12:32:00;97320.13;;;31.38
17716;BMP280;50159;49.426;11.182;2022-07-29T12:34:29;97312.47;;;31.92
17716;BMP280;50159;49.426;11.182;2022-07-29T12:36:56;97324.94;;;32.48
17716;BMP280;50159;49.426;11.182;2022-07-29T12:39:23;97334.00;;;33.03
17716;BMP280;50159;49.426;11.182;2022-07-29T12:41:53;97329.75;;;33.26
17716;BMP280;50159;49.426;11.182;2022-07-29T12:44:51;97333.44;;;32.91
17716;BMP280;50159;49.426;11.182;2022-07-29T12:47:19;97331.09;;;32.44
17716;BMP280;50159;49.426;11.182;2022-07-29T12:49:47;97324.03;;;31.93
17716;BMP280;50159;49.426;11.182;2022-07-29T12:54:53;97319.34;;;31.12
17716;BMP280;50159;49.426;11.182;2022-07-29T12:57:20;97324.41;;;30.83
17716;BMP280;50159;49.426;11.182;2022-07-29T13:00:08;97316.25;;;30.52
17716;BMP280;50159;49.426;11.182;2022-07-29T13:02:38;97310.31;;;30.29
17716;BMP280;50159;49.426;11.182;2022-07-29T13:05:07;97311.84;;;30.04
17716;BMP280;50159;49.426;11.182;2022-07-29T13:07:36;97315.06;;;29.85
17716;BMP280;50159;49.426;11.182;2022-07-29T13:10:23;97309.88;;;29.62
17716;BMP280;50159;49.426;11.182;2022-07-29T13:13:12;97316.31;;;29.45
17716;BMP280;50159;49.426;11.182;2022-07-29T13:15:42;97316.06;;;29.30
17716;BMP280;50159;49.426;11.182;2022-07-29T13:18:31;97333.66;;;29.26
17716;BMP280;50159;49.426;11.182;2022-07-29T13:21:12;97348.41;;;29.29
17716;BMP280;50159;49.426;11.182;2022-07-29T13:23:40;97357.19;;;29.24
17716;BMP280;50159;49.426;11.182;2022-07-29T13:26:11;97372.19;;;29.09
17716;BMP280;50159;49.426;11.182;2022-07-29T13:28:38;97374.44;;;28.62
17716;BMP280;50159;49.426;11.182;2022-07-29T13:31:05;97365.97;;;27.93
17716;BMP280;50159;49.426;11.182;2022-07-29T13:33:32;97376.22;;;27.33
17716;BMP280;50159;49.426;11.182;2022-07-29T13:35:59;97376.09;;;26.99
17716;BMP280;50159;49.426;11.182;2022-07-29T13:38:25;97372.06;;;26.68
17716;BMP280;50159;49.426;11.182;2022-07-29T13:40:57;97366.03;;;26.37
17716;BMP280;50159;49.426;11.182;2022-07-29T13:43:24;97372.50;;;26.12
17716;BMP280;50159;49.426;11.182;2022-07-29T13:45:51;97380.97;;;25.85
17716;BMP280;50159;49.426;11.182;2022-07-29T13:48:18;97388.75;;;25.63
17716;BMP280;50159;49.426;11.182;2022-07-29T13:50:45;97372.81;;;25.33
17716;BMP280;50159;49.426;11.182;2022-07-29T13:53:13;97370.28;;;25.14
17716;BMP280;50159;49.426;11.182;2022-07-29T13:55:43;97376.75;;;25.00
17716;BMP280;50159;49.426;11.182;2022-07-29T13:58:10;97379.88;;;24.91
17716;BMP280;50159;49.426;11.182;2022-07-29T14:00:37;97371.72;;;24.86
17716;BMP280;50159;49.426;11.182;2022-07-29T14:03:04;97364.00;;;24.78
17716;BMP280;50159;49.426;11.182;2022-07-29T14:05:32;97368.31;;;24.72
17716;BMP280;50159;49.426;11.182;2022-07-29T14:07:59;97360.16;;;24.68
17716;BMP280;50159;49.426;11.182;2022-07-29T14:10:26;97349.97;;;24.58
17716;BMP280;50159;49.426;11.182;2022-07-29T14:12:53;97346.94;;;24.55
17716;BMP280;50159;49.426;11.182;2022-07-29T14:15:20;97353.28;;;24.48
17716;BMP280;50159;49.426;11.182;2022-07-29T14:17:47;97359.81;;;24.51
17716;BMP280;50159;49.426;11.182;2022-07-29T14:20:14;97358.97;;;24.57
17716;BMP280;50159;49.426;11.182;2022-07-29T14:22:42;97354.03;;;24.67
17716;BMP280;50159;49.426;11.182;2022-07-29T14:25:11;97366.06;;;24.76
17716;BMP280;50159;49.426;11.182;2022-07-29T14:27:42;97361.69;;;24.88
17716;BMP280;50159;49.426;11.182;2022-07-29T14:30:10;97371.03;;;24.96
17716;BMP280;50159;49.426;11.182;2022-07-29T14:32:37;97352.16;;;25.04
17716;BMP280;50159;49.426;11.182;2022-07-29T14:35:05;97348.78;;;25.15
17716;BMP280;50159;49.426;11.182;2022-07-29T14:37:32;97350.16;;;25.24
17716;BMP280;50159;49.426;11.182;2022-07-29T14:40:06;97346.81;;;25.35
17716;BMP280;50159;49.426;11.182;2022-07-29T14:42:34;97349.41;;;25.41
17716;BMP280;50159;49.426;11.182;2022-07-29T14:45:00;97359.47;;;25.63